DGAA/ACC METAR and TAF weather

Enter ICAO airport designator
Station Type Date Time Source
DGAA METAR 2022/06/27 08:00 UTC NOAA

DGAA 270800Z 24009KT 8000 FEW014 26/24 Q1014 NOSIG


Station Type Date Time Source
DGAA Decoded METAR 2022/06/27 08:00 UTC NOAA

Accra, Ghana (DGAA) 05-36N 000-10W 69M
Jun 27, 2022 - 04:00 AM EDT / 2022.06.27 0800 UTC
Wind: from the WSW (240 degrees) at 10 MPH (9 KT):0
Visibility: 4 mile(s):0
Sky conditions: mostly clear
Temperature: 78 F (26 C)
Dew Point: 75 F (24 C)
Relative Humidity: 88%
Pressure (altimeter): 29.94 in. Hg (1014 hPa)
ob: DGAA 270800Z 24009KT 8000 FEW014 26/24 Q1014 NOSIG
cycle: 8

Station Type Date Time Source
DGAA TAF 2022/06/27 06:02 UTC NOAA

TAF DGAA 270600Z 2706/2812 27005KT 9999 BKN012 PROB30
TEMPO 2713/2717 18012KT 5000 TSRA FEW030CB
BECMG 2722/2724 CAVOK

Example: see airport list